sensor_id;sensor_type;location;lat;lon;timestamp;temperature;humidity
80706;DHT22;70229;48.010;7.852;2023-08-07T00:00:21;14.60;81.40
80706;DHT22;70229;48.010;7.852;2023-08-07T00:02:47;15.50;81.70
80706;DHT22;70229;48.010;7.852;2023-08-07T00:05:13;15.60;82.20
80706;DHT22;70229;48.010;7.852;2023-08-07T00:07:39;14.60;82.20
80706;DHT22;70229;48.010;7.852;2023-08-07T00:10:05;14.90;82.10
80706;DHT22;70229;48.010;7.852;2023-08-07T00:12:31;14.60;81.70
80706;DHT22;70229;48.010;7.852;2023-08-07T00:14:56;15.20;82.20
80706;DHT22;70229;48.010;7.852;2023-08-07T00:17:22;14.60;81.20
80706;DHT22;70229;48.010;7.852;2023-08-07T00:19:51;15.10;81.50
80706;DHT22;70229;48.010;7.852;2023-08-07T00:22:22;14.60;80.60
80706;DHT22;70229;48.010;7.852;2023-08-07T00:25:01;14.70;81.00
80706;DHT22;70229;48.010;7.852;2023-08-07T00:27:26;14.70;81.30
80706;DHT22;70229;48.010;7.852;2023-08-07T00:29:52;14.70;81.20
80706;DHT22;70229;48.010;7.852;2023-08-07T00:32:27;14.70;81.80
80706;DHT22;70229;48.010;7.852;2023-08-07T00:34:53;14.60;82.20
80706;DHT22;70229;48.010;7.852;2023-08-07T00:37:25;14.60;82.30
80706;DHT22;70229;48.010;7.852;2023-08-07T00:39:51;14.00;82.40
80706;DHT22;70229;48.010;7.852;2023-08-07T00:42:17;14.60;82.40
80706;DHT22;70229;48.010;7.852;2023-08-07T00:44:45;14.60;81.80
80706;DHT22;70229;48.010;7.852;2023-08-07T00:47:11;14.60;81.30
80706;DHT22;70229;48.010;7.852;2023-08-07T00:49:42;14.60;81.70
80706;DHT22;70229;48.010;7.852;2023-08-07T00:52:12;15.90;82.80
80706;DHT22;70229;48.010;7.852;2023-08-07T00:54:50;14.60;82.50
80706;DHT22;70229;48.010;7.852;2023-08-07T00:57:17;15.50;82.50
80706;DHT22;70229;48.010;7.852;2023-08-07T00:59:48;14.60;81.50
80706;DHT22;70229;48.010;7.852;2023-08-07T01:02:41;14.60;81.50
80706;DHT22;70229;48.010;7.852;2023-08-07T01:05:07;14.60;82.00
80706;DHT22;70229;48.010;7.852;2023-08-07T01:07:32;14.60;81.60
80706;DHT22;70229;48.010;7.852;2023-08-07T01:09:58;15.80;81.90
80706;DHT22;70229;48.010;7.852;2023-08-07T01:12:45;14.60;81.50
80706;DHT22;70229;48.010;7.852;2023-08-07T01:15:22;14.60;82.00
80706;DHT22;70229;48.010;7.852;2023-08-07T01:18:37;14.60;80.70
80706;DHT22;70229;48.010;7.852;2023-08-07T01:20:50;14.60;80.90
80706;DHT22;70229;48.010;7.852;2023-08-07T01:23:27;14.70;80.60
80706;DHT22;70229;48.010;7.852;2023-08-07T01:25:53;14.60;81.10
80706;DHT22;70229;48.010;7.852;2023-08-07T01:28:21;14.60;81.90
80706;DHT22;70229;48.010;7.852;2023-08-07T01:30:55;14.60;81.10
80706;DHT22;70229;48.010;7.852;2023-08-07T01:33:42;15.60;81.90
80706;DHT22;70229;48.010;7.852;2023-08-07T01:36:11;14.60;81.30
80706;DHT22;70229;48.010;7.852;2023-08-07T01:38:38;16.00;82.40
80706;DHT22;70229;48.010;7.852;2023-08-07T01:41:04;14.60;81.00
80706;DHT22;70229;48.010;7.852;2023-08-07T01:43:40;14.60;81.30
80706;DHT22;70229;48.010;7.852;2023-08-07T01:46:06;14.60;81.50
80706;DHT22;70229;48.010;7.852;2023-08-07T01:48:34;14.80;81.50
80706;DHT22;70229;48.010;7.852;2023-08-07T01:51:03;15.30;81.90
80706;DHT22;70229;48.010;7.852;2023-08-07T01:53:38;15.80;82.70
80706;DHT22;70229;48.010;7.852;2023-08-07T01:56:07;14.60;82.00
80706;DHT22;70229;48.010;7.852;2023-08-07T01:58:44;14.60;82.50
80706;DHT22;70229;48.010;7.852;2023-08-07T02:01:18;14.60;82.80
80706;DHT22;70229;48.010;7.852;2023-08-07T02:03:44;14.30;83.10
80706;DHT22;70229;48.010;7.852;2023-08-07T02:06:30;15.80;84.20
80706;DHT22;70229;48.010;7.852;2023-08-07T02:08:59;14.50;84.20
80706;DHT22;70229;48.010;7.852;2023-08-07T02:11:32;14.50;84.20
80706;DHT22;70229;48.010;7.852;2023-08-07T02:14:10;15.80;85.30
80706;DHT22;70229;48.010;7.852;2023-08-07T02:16:36;14.50;84.50
80706;DHT22;70229;48.010;7.852;2023-08-07T02:19:08;14.40;85.10
80706;DHT22;70229;48.010;7.852;2023-08-07T02:21:43;13.20;84.40
80706;DHT22;70229;48.010;7.852;2023-08-07T02:24:09;14.40;85.20
80706;DHT22;70229;48.010;7.852;2023-08-07T02:26:51;14.30;84.90
80706;DHT22;70229;48.010;7.852;2023-08-07T02:29:19;15.70;85.00
80706;DHT22;70229;48.010;7.852;2023-08-07T02:32:13;14.40;84.70
80706;DHT22;70229;48.010;7.852;2023-08-07T02:34:42;14.40;84.80
80706;DHT22;70229;48.010;7.852;2023-08-07T02:37:10;14.40;84.90
80706;DHT22;70229;48.010;7.852;2023-08-07T02:39:42;14.30;85.20
80706;DHT22;70229;48.010;7.852;2023-08-07T02:42:11;15.10;85.80
80706;DHT22;70229;48.010;7.852;2023-08-07T02:44:40;14.40;85.40
80706;DHT22;70229;48.010;7.852;2023-08-07T02:47:18;15.00;85.50
80706;DHT22;70229;48.010;7.852;2023-08-07T02:49:46;14.30;84.60
80706;DHT22;70229;48.010;7.852;2023-08-07T02:52:14;14.50;84.50
80706;DHT22;70229;48.010;7.852;2023-08-07T02:54:43;14.10;84.80
80706;DHT22;70229;48.010;7.852;2023-08-07T02:57:09;14.40;84.80
80706;DHT22;70229;48.010;7.852;2023-08-07T02:59:40;14.40;85.00
80706;DHT22;70229;48.010;7.852;2023-08-07T03:02:09;14.50;85.20
80706;DHT22;70229;48.010;7.852;2023-08-07T03:04:53;14.40;85.40
80706;DHT22;70229;48.010;7.852;2023-08-07T03:07:34;14.40;85.60
80706;DHT22;70229;48.010;7.852;2023-08-07T03:10:00;14.40;86.00
80706;DHT22;70229;48.010;7.852;2023-08-07T03:12:26;14.40;87.00
80706;DHT22;70229;48.010;7.852;2023-08-07T03:14:51;13.50;85.80
80706;DHT22;70229;48.010;7.852;2023-08-07T03:17:26;14.40;86.20
80706;DHT22;70229;48.010;7.852;2023-08-07T03:19:52;14.40;86.60
80706;DHT22;70229;48.010;7.852;2023-08-07T03:22:20;14.40;86.70
80706;DHT22;70229;48.010;7.852;2023-08-07T03:24:52;14.40;87.10
80706;DHT22;70229;48.010;7.852;2023-08-07T03:27:23;14.20;88.00
80706;DHT22;70229;48.010;7.852;2023-08-07T03:30:00;14.20;88.20
80706;DHT22;70229;48.010;7.852;2023-08-07T03:32:29;14.10;88.80
80706;DHT22;70229;48.010;7.852;2023-08-07T03:34:58;14.30;89.30
80706;DHT22;70229;48.010;7.852;2023-08-07T03:37:27;14.30;89.10
80706;DHT22;70229;48.010;7.852;2023-08-07T03:39:56;14.20;89.10
80706;DHT22;70229;48.010;7.852;2023-08-07T03:42:27;14.00;89.70
80706;DHT22;70229;48.010;7.852;2023-08-07T03:44:55;14.10;89.50
80706;DHT22;70229;48.010;7.852;2023-08-07T03:47:33;14.10;88.70
80706;DHT22;70229;48.010;7.852;2023-08-07T03:50:04;14.00;88.70
80706;DHT22;70229;48.010;7.852;2023-08-07T03:52:33;14.10;88.80
80706;DHT22;70229;48.010;7.852;2023-08-07T03:55:22;14.00;88.90
80706;DHT22;70229;48.010;7.852;2023-08-07T03:57:56;13.90;88.60
80706;DHT22;70229;48.010;7.852;2023-08-07T04:00:33;14.00;88.00
80706;DHT22;70229;48.010;7.852;2023-08-07T04:02:59;14.00;88.60
80706;DHT22;70229;48.010;7.852;2023-08-07T04:05:25;13.90;89.00
80706;DHT22;70229;48.010;7.852;2023-08-07T04:07:51;14.10;90.00
80706;DHT22;70229;48.010;7.852;2023-08-07T04:10:17;14.30;90.10
80706;DHT22;70229;48.010;7.852;2023-08-07T04:12:42;13.90;90.00
80706;DHT22;70229;48.010;7.852;2023-08-07T04:15:11;14.00;89.90
80706;DHT22;70229;48.010;7.852;2023-08-07T04:17:36;13.90;89.90
80706;DHT22;70229;48.010;7.852;2023-08-07T04:20:25;13.80;90.20
80706;DHT22;70229;48.010;7.852;2023-08-07T04:23:02;13.90;90.20
80706;DHT22;70229;48.010;7.852;2023-08-07T04:25:47;12.90;90.00
80706;DHT22;70229;48.010;7.852;2023-08-07T04:28:13;14.20;90.50
80706;DHT22;70229;48.010;7.852;2023-08-07T04:30:48;13.10;90.30
80706;DHT22;70229;48.010;7.852;2023-08-07T04:33:26;13.70;90.50
80706;DHT22;70229;48.010;7.852;2023-08-07T04:36:03;13.60;90.60
80706;DHT22;70229;48.010;7.852;2023-08-07T04:38:34;13.60;90.60
80706;DHT22;70229;48.010;7.852;2023-08-07T04:44:24;13.60;90.90
80706;DHT22;70229;48.010;7.852;2023-08-07T04:46:59;13.60;90.90
80706;DHT22;70229;48.010;7.852;2023-08-07T04:49:27;13.60;90.80
80706;DHT22;70229;48.010;7.852;2023-08-07T04:52:08;13.60;90.40
80706;DHT22;70229;48.010;7.852;2023-08-07T04:54:34;14.30;90.60
80706;DHT22;70229;48.010;7.852;2023-08-07T04:57:00;13.80;90.20
80706;DHT22;70229;48.010;7.852;2023-08-07T04:59:28;13.40;90.00
80706;DHT22;70229;48.010;7.852;2023-08-07T05:02:06;13.80;90.10
80706;DHT22;70229;48.010;7.852;2023-08-07T05:05:00;13.80;90.20
80706;DHT22;70229;48.010;7.852;2023-08-07T05:07:29;13.80;89.90
80706;DHT22;70229;48.010;7.852;2023-08-07T05:10:05;12.80;89.80
80706;DHT22;70229;48.010;7.852;2023-08-07T05:12:40;13.90;90.00
80706;DHT22;70229;48.010;7.852;2023-08-07T05:15:06;14.40;90.10
80706;DHT22;70229;48.010;7.852;2023-08-07T05:17:45;13.90;89.40
80706;DHT22;70229;48.010;7.852;2023-08-07T05:20:45;13.80;89.70
80706;DHT22;70229;48.010;7.852;2023-08-07T05:23:11;13.90;89.90
80706;DHT22;70229;48.010;7.852;2023-08-07T05:25:37;13.90;90.10
80706;DHT22;70229;48.010;7.852;2023-08-07T05:28:15;13.90;89.60
80706;DHT22;70229;48.010;7.852;2023-08-07T05:30:41;15.10;90.30
80706;DHT22;70229;48.010;7.852;2023-08-07T05:33:12;13.80;90.30
80706;DHT22;70229;48.010;7.852;2023-08-07T05:36:15;13.80;90.40
80706;DHT22;70229;48.010;7.852;2023-08-07T05:38:50;13.70;90.80
80706;DHT22;70229;48.010;7.852;2023-08-07T05:41:28;13.70;90.80
80706;DHT22;70229;48.010;7.852;2023-08-07T05:43:56;13.70;90.90
80706;DHT22;70229;48.010;7.852;2023-08-07T05:46:28;13.80;90.90
80706;DHT22;70229;48.010;7.852;2023-08-07T05:48:59;13.80;90.80
80706;DHT22;70229;48.010;7.852;2023-08-07T05:51:40;13.70;90.90
80706;DHT22;70229;48.010;7.852;2023-08-07T05:57:40;13.80;91.00
80706;DHT22;70229;48.010;7.852;2023-08-07T06:07:29;13.80;90.60
80706;DHT22;70229;48.010;7.852;2023-08-07T06:10:07;14.10;90.70
80706;DHT22;70229;48.010;7.852;2023-08-07T06:12:36;13.90;90.80
80706;DHT22;70229;48.010;7.852;2023-08-07T06:17:52;14.00;90.30
80706;DHT22;70229;48.010;7.852;2023-08-07T10:37:07;17.00;77.50
80706;DHT22;70229;48.010;7.852;2023-08-07T10:39:33;17.30;76.10
80706;DHT22;70229;48.010;7.852;2023-08-07T10:41:59;17.20;77.20
80706;DHT22;70229;48.010;7.852;2023-08-07T10:44:29;17.80;79.00
80706;DHT22;70229;48.010;7.852;2023-08-07T10:46:57;18.00;77.30
80706;DHT22;70229;48.010;7.852;2023-08-07T10:49:36;17.80;75.60
80706;DHT22;70229;48.010;7.852;2023-08-07T10:52:13;19.00;76.60
80706;DHT22;70229;48.010;7.852;2023-08-07T10:54:47;18.20;76.60
80706;DHT22;70229;48.010;7.852;2023-08-07T10:57:14;17.80;76.00
80706;DHT22;70229;48.010;7.852;2023-08-07T11:02:25;18.20;77.00
80706;DHT22;70229;48.010;7.852;2023-08-07T11:04:59;17.80;75.70
80706;DHT22;70229;48.010;7.852;2023-08-07T11:07:30;17.90;75.20
80706;DHT22;70229;48.010;7.852;2023-08-07T11:09:56;17.80;76.00
80706;DHT22;70229;48.010;7.852;2023-08-07T11:12:29;17.90;75.30
80706;DHT22;70229;48.010;7.852;2023-08-07T11:14:55;18.30;76.50
80706;DHT22;70229;48.010;7.852;2023-08-07T11:17:29;18.10;76.60
80706;DHT22;70229;48.010;7.852;2023-08-07T11:19:56;17.70;76.50
80706;DHT22;70229;48.010;7.852;2023-08-07T11:25:26;17.80;75.80
80706;DHT22;70229;48.010;7.852;2023-08-07T11:28:09;18.00;74.60
80706;DHT22;70229;48.010;7.852;2023-08-07T14:29:14;21.30;59.40
80706;DHT22;70229;48.010;7.852;2023-08-07T14:31:40;21.30;58.00
80706;DHT22;70229;48.010;7.852;2023-08-07T14:34:05;21.40;56.10
80706;DHT22;70229;48.010;7.852;2023-08-07T14:36:31;21.60;57.20
80706;DHT22;70229;48.010;7.852;2023-08-07T14:38:57;21.60;57.30
80706;DHT22;70229;48.010;7.852;2023-08-07T14:41:23;21.30;57.10
80706;DHT22;70229;48.010;7.852;2023-08-07T14:43:48;21.30;56.70
80706;DHT22;70229;48.010;7.852;2023-08-07T14:46:15;21.50;55.90
80706;DHT22;70229;48.010;7.852;2023-08-07T14:48:41;21.50;55.80
80706;DHT22;70229;48.010;7.852;2023-08-07T14:51:07;21.60;54.80
80706;DHT22;70229;48.010;7.852;2023-08-07T14:53:32;21.70;55.20
80706;DHT22;70229;48.010;7.852;2023-08-07T14:55:58;21.40;55.40
80706;DHT22;70229;48.010;7.852;2023-08-07T14:58:24;21.10;57.20
80706;DHT22;70229;48.010;7.852;2023-08-07T15:00:51;20.70;57.40
80706;DHT22;70229;48.010;7.852;2023-08-07T15:03:18;21.10;57.50
80706;DHT22;70229;48.010;7.852;2023-08-07T15:05:44;21.10;55.20
80706;DHT22;70229;48.010;7.852;2023-08-07T15:08:09;21.10;55.80
80706;DHT22;70229;48.010;7.852;2023-08-07T15:10:35;20.70;56.60
80706;DHT22;70229;48.010;7.852;2023-08-07T15:13:02;20.80;57.70
80706;DHT22;70229;48.010;7.852;2023-08-07T15:15:27;20.30;59.00
80706;DHT22;70229;48.010;7.852;2023-08-07T15:17:53;20.10;59.30
80706;DHT22;70229;48.010;7.852;2023-08-07T15:20:19;20.00;59.10
80706;DHT22;70229;48.010;7.852;2023-08-07T15:22:46;20.20;59.40
80706;DHT22;70229;48.010;7.852;2023-08-07T15:25:13;20.00;59.80
80706;DHT22;70229;48.010;7.852;2023-08-07T15:27:38;19.90;60.00
80706;DHT22;70229;48.010;7.852;2023-08-07T15:30:04;20.10;59.70
80706;DHT22;70229;48.010;7.852;2023-08-07T15:32:30;19.80;59.90
80706;DHT22;70229;48.010;7.852;2023-08-07T15:34:56;19.70;60.70
80706;DHT22;70229;48.010;7.852;2023-08-07T15:37:21;19.70;61.20
80706;DHT22;70229;48.010;7.852;2023-08-07T15:39:47;19.90;61.90
80706;DHT22;70229;48.010;7.852;2023-08-07T15:42:12;19.60;63.00
80706;DHT22;70229;48.010;7.852;2023-08-07T15:44:38;19.70;63.60
80706;DHT22;70229;48.010;7.852;2023-08-07T15:47:04;19.80;64.20
80706;DHT22;70229;48.010;7.852;2023-08-07T15:49:30;19.90;62.70
80706;DHT22;70229;48.010;7.852;2023-08-07T15:51:55;19.90;62.00
80706;DHT22;70229;48.010;7.852;2023-08-07T15:54:21;20.20;62.40
80706;DHT22;70229;48.010;7.852;2023-08-07T15:56:47;20.70;62.30
80706;DHT22;70229;48.010;7.852;2023-08-07T15:59:12;20.90;60.40
80706;DHT22;70229;48.010;7.852;2023-08-07T16:01:38;20.30;61.60
80706;DHT22;70229;48.010;7.852;2023-08-07T16:04:03;19.80;63.40
80706;DHT22;70229;48.010;7.852;2023-08-07T16:06:30;20.10;64.20
80706;DHT22;70229;48.010;7.852;2023-08-07T16:08:55;19.70;64.60
80706;DHT22;70229;48.010;7.852;2023-08-07T16:11:22;19.70;64.50
80706;DHT22;70229;48.010;7.852;2023-08-07T16:13:48;19.50;65.50
80706;DHT22;70229;48.010;7.852;2023-08-07T16:16:17;19.30;66.30
80706;DHT22;70229;48.010;7.852;2023-08-07T16:18:43;19.50;66.40
80706;DHT22;70229;48.010;7.852;2023-08-07T16:21:09;20.20;64.00
80706;DHT22;70229;48.010;7.852;2023-08-07T16:23:35;20.00;63.60
80706;DHT22;70229;48.010;7.852;2023-08-07T16:26:01;20.00;64.10
80706;DHT22;70229;48.010;7.852;2023-08-07T16:28:26;20.00;64.90
80706;DHT22;70229;48.010;7.852;2023-08-07T16:30:52;19.80;64.90
80706;DHT22;70229;48.010;7.852;2023-08-07T16:33:18;19.30;65.80
80706;DHT22;70229;48.010;7.852;2023-08-07T16:35:44;19.30;66.90
80706;DHT22;70229;48.010;7.852;2023-08-07T16:38:10;19.20;66.70
80706;DHT22;70229;48.010;7.852;2023-08-07T16:40:37;19.50;67.20
80706;DHT22;70229;48.010;7.852;2023-08-07T16:43:03;19.20;67.70
80706;DHT22;70229;48.010;7.852;2023-08-07T16:45:29;19.10;68.00
80706;DHT22;70229;48.010;7.852;2023-08-07T16:47:56;19.60;69.30
80706;DHT22;70229;48.010;7.852;2023-08-07T16:50:37;18.80;69.00
80706;DHT22;70229;48.010;7.852;2023-08-07T16:53:10;19.80;71.30
80706;DHT22;70229;48.010;7.852;2023-08-07T16:56:10;18.70;70.20
80706;DHT22;70229;48.010;7.852;2023-08-07T16:58:53;18.60;71.40
80706;DHT22;70229;48.010;7.852;2023-08-07T17:01:19;18.60;71.80
80706;DHT22;70229;48.010;7.852;2023-08-07T17:03:45;18.70;72.00
80706;DHT22;70229;48.010;7.852;2023-08-07T17:06:11;18.60;72.60
80706;DHT22;70229;48.010;7.852;2023-08-07T17:08:37;18.60;72.40
80706;DHT22;70229;48.010;7.852;2023-08-07T17:11:11;19.50;73.60
80706;DHT22;70229;48.010;7.852;2023-08-07T17:13:39;19.60;73.20
80706;DHT22;70229;48.010;7.852;2023-08-07T17:16:05;18.80;72.20
80706;DHT22;70229;48.010;7.852;2023-08-07T17:18:30;18.70;72.70
80706;DHT22;70229;48.010;7.852;2023-08-07T17:21:56;18.80;72.20
80706;DHT22;70229;48.010;7.852;2023-08-07T17:24:04;18.60;73.10
80706;DHT22;70229;48.010;7.852;2023-08-07T17:26:30;18.60;71.90
80706;DHT22;70229;48.010;7.852;2023-08-07T17:28:56;19.80;73.60
80706;DHT22;70229;48.010;7.852;2023-08-07T17:31:23;18.50;72.50
80706;DHT22;70229;48.010;7.852;2023-08-07T17:34:30;19.90;73.30
80706;DHT22;70229;48.010;7.852;2023-08-07T17:37:03;18.60;72.40
80706;DHT22;70229;48.010;7.852;2023-08-07T17:39:28;18.50;72.70
80706;DHT22;70229;48.010;7.852;2023-08-07T17:41:54;18.50;72.30
80706;DHT22;70229;48.010;7.852;2023-08-07T17:44:20;18.50;73.10
80706;DHT22;70229;48.010;7.852;2023-08-07T17:46:49;18.50;74.30
80706;DHT22;70229;48.010;7.852;2023-08-07T17:49:18;18.30;75.30
80706;DHT22;70229;48.010;7.852;2023-08-07T17:51:51;18.10;76.10
80706;DHT22;70229;48.010;7.852;2023-08-07T17:59:39;18.10;76.30
80706;DHT22;70229;48.010;7.852;2023-08-07T18:02:05;18.00;76.00
80706;DHT22;70229;48.010;7.852;2023-08-07T18:04:30;18.00;76.10
80706;DHT22;70229;48.010;7.852;2023-08-07T18:06:56;18.70;75.70
80706;DHT22;70229;48.010;7.852;2023-08-07T18:09:22;18.00;75.60
80706;DHT22;70229;48.010;7.852;2023-08-07T18:11:49;18.10;75.70
80706;DHT22;70229;48.010;7.852;2023-08-07T18:14:15;18.10;75.10
80706;DHT22;70229;48.010;7.852;2023-08-07T18:19:22;18.10;74.80
80706;DHT22;70229;48.010;7.852;2023-08-07T18:21:57;18.00;75.00
80706;DHT22;70229;48.010;7.852;2023-08-07T18:24:35;17.90;74.80
80706;DHT22;70229;48.010;7.852;2023-08-07T18:27:01;18.00;74.70
80706;DHT22;70229;48.010;7.852;2023-08-07T18:29:26;17.40;74.30
80706;DHT22;70229;48.010;7.852;2023-08-07T18:31:52;18.70;75.10
80706;DHT22;70229;48.010;7.852;2023-08-07T18:34:20;18.10;74.80
80706;DHT22;70229;48.010;7.852;2023-08-07T18:36:48;18.10;74.00
80706;DHT22;70229;48.010;7.852;2023-08-07T18:39:17;18.70;73.90
80706;DHT22;70229;48.010;7.852;2023-08-07T18:41:53;18.10;73.70
80706;DHT22;70229;48.010;7.852;2023-08-07T18:44:22;18.00;74.30
80706;DHT22;70229;48.010;7.852;2023-08-07T18:46:52;17.00;73.60
80706;DHT22;70229;48.010;7.852;2023-08-07T18:49:18;18.00;75.30
80706;DHT22;70229;48.010;7.852;2023-08-07T18:51:49;18.00;75.10
80706;DHT22;70229;48.010;7.852;2023-08-07T18:54:28;18.00;75.60
80706;DHT22;70229;48.010;7.852;2023-08-07T18:56:58;17.90;76.90
80706;DHT22;70229;48.010;7.852;2023-08-07T18:59:39;17.80;78.30
80706;DHT22;70229;48.010;7.852;2023-08-07T19:02:11;18.40;78.90
80706;DHT22;70229;48.010;7.852;2023-08-07T19:04:41;17.70;79.00
80706;DHT22;70229;48.010;7.852;2023-08-07T19:07:07;18.70;79.40
80706;DHT22;70229;48.010;7.852;2023-08-07T19:09:41;18.50;80.50
80706;DHT22;70229;48.010;7.852;2023-08-07T19:12:20;17.60;80.00
80706;DHT22;70229;48.010;7.852;2023-08-07T19:14:46;17.50;80.70
80706;DHT22;70229;48.010;7.852;2023-08-07T19:17:14;17.60;80.30
80706;DHT22;70229;48.010;7.852;2023-08-07T19:19:43;17.50;79.60
80706;DHT22;70229;48.010;7.852;2023-08-07T19:22:09;17.60;80.50
80706;DHT22;70229;48.010;7.852;2023-08-07T19:24:38;17.50;81.20
80706;DHT22;70229;48.010;7.852;2023-08-07T19:27:07;17.40;80.70
80706;DHT22;70229;48.010;7.852;2023-08-07T19:29:32;17.30;81.50
80706;DHT22;70229;48.010;7.852;2023-08-07T19:31:58;17.30;81.70
80706;DHT22;70229;48.010;7.852;2023-08-07T19:34:24;17.20;81.70
80706;DHT22;70229;48.010;7.852;2023-08-07T19:36:50;17.30;78.50
80706;DHT22;70229;48.010;7.852;2023-08-07T19:39:17;17.30;78.40
80706;DHT22;70229;48.010;7.852;2023-08-07T19:44:51;16.00;76.50
80706;DHT22;70229;48.010;7.852;2023-08-07T19:47:17;18.00;77.50
80706;DHT22;70229;48.010;7.852;2023-08-07T19:49:43;17.10;76.40
80706;DHT22;70229;48.010;7.852;2023-08-07T19:52:08;18.60;78.20
80706;DHT22;70229;48.010;7.852;2023-08-07T19:54:34;17.10;78.30
80706;DHT22;70229;48.010;7.852;2023-08-07T19:56:59;18.40;80.30
80706;DHT22;70229;48.010;7.852;2023-08-07T19:59:25;17.90;80.70
80706;DHT22;70229;48.010;7.852;2023-08-07T20:01:51;17.50;80.70
80706;DHT22;70229;48.010;7.852;2023-08-07T20:04:16;18.10;82.40
80706;DHT22;70229;48.010;7.852;2023-08-07T20:06:45;16.80;81.50
80706;DHT22;70229;48.010;7.852;2023-08-07T20:09:10;18.20;82.60
80706;DHT22;70229;48.010;7.852;2023-08-07T20:11:37;16.70;82.40
80706;DHT22;70229;48.010;7.852;2023-08-07T20:14:03;17.40;83.80
80706;DHT22;70229;48.010;7.852;2023-08-07T20:16:29;16.40;83.20
80706;DHT22;70229;48.010;7.852;2023-08-07T20:18:57;16.80;84.10
80706;DHT22;70229;48.010;7.852;2023-08-07T20:21:26;16.40;84.80
80706;DHT22;70229;48.010;7.852;2023-08-07T20:23:53;16.30;84.20
80706;DHT22;70229;48.010;7.852;2023-08-07T20:26:20;16.20;84.70
80706;DHT22;70229;48.010;7.852;2023-08-07T20:28:46;14.90;84.10
80706;DHT22;70229;48.010;7.852;2023-08-07T20:31:11;17.70;85.20
80706;DHT22;70229;48.010;7.852;2023-08-07T20:33:39;16.40;84.50
80706;DHT22;70229;48.010;7.852;2023-08-07T20:36:17;16.70;84.80
80706;DHT22;70229;48.010;7.852;2023-08-07T20:39:01;16.10;85.50
